Lynnville, Illinois
Current Conditions -  °F | °C
As of 11:15 AM on Friday 19 Dec 2014 (Local Time) from KIJX Reporting Station
Overcast Overcast  
Wind Chill: 29°   Ceiling: 4200
Heat Index: 33°   Visibility: 10mi
Dew Point: 26°   Wind: 5mph
Humidity: 74%   Direction: 140°SE
Pressure: 30.31"   Gusts: NA
Location:  39.7413°N, 90.2138°W
Report Text: KIJX 191715Z AUTO 14004KT 10SM OVC042 01/M03 A3031 RMK AO2 T00081033
Loading
Personal Weather Stations






























Interactive Weather Map New forecast layout! Learn more

10-Day Weather Forecast

Advertisements
Track Severe Weather on mobile